sensor_id;sensor_type;location;lat;lon;timestamp;P1;durP1;ratioP1;P2;durP2;ratioP2
7737;SDS011;29398;45.328;5.558;2023-04-24T00:00:38;4.15;;;2.20;;
7737;SDS011;29398;45.328;5.558;2023-04-24T00:01:40;4.20;;;2.40;;
7737;SDS011;29398;45.328;5.558;2023-04-24T00:02:43;2.45;;;2.25;;
7737;SDS011;29398;45.328;5.558;2023-04-24T00:03:47;3.00;;;2.00;;
7737;SDS011;29398;45.328;5.558;2023-04-24T00:04:48;2.60;;;2.40;;
7737;SDS011;29398;45.328;5.558;2023-04-24T00:05:50;2.25;;;2.05;;
7737;SDS011;29398;45.328;5.558;2023-04-24T00:06:51;2.78;;;1.98;;
7737;SDS011;29398;45.328;5.558;2023-04-24T00:07:57;3.95;;;2.40;;
7737;SDS011;29398;45.328;5.558;2023-04-24T00:08:59;3.28;;;2.30;;
7737;SDS011;29398;45.328;5.558;2023-04-24T00:10:02;2.80;;;2.25;;
7737;SDS011;29398;45.328;5.558;2023-04-24T00:11:03;4.57;;;2.17;;
7737;SDS011;29398;45.328;5.558;2023-04-24T00:12:05;3.72;;;2.10;;
7737;SDS011;29398;45.328;5.558;2023-04-24T00:13:09;2.88;;;2.30;;
7737;SDS011;29398;45.328;5.558;2023-04-24T00:14:11;3.35;;;2.10;;
7737;SDS011;29398;45.328;5.558;2023-04-24T00:15:12;4.88;;;2.42;;
7737;SDS011;29398;45.328;5.558;2023-04-24T00:16:14;2.67;;;2.10;;
7737;SDS011;29398;45.328;5.558;2023-04-24T00:17:16;2.88;;;2.10;;
7737;SDS011;29398;45.328;5.558;2023-04-24T00:18:20;2.50;;;2.30;;
7737;SDS011;29398;45.328;5.558;2023-04-24T00:19:21;5.28;;;2.35;;
7737;SDS011;29398;45.328;5.558;2023-04-24T00:20:23;4.47;;;2.20;;
7737;SDS011;29398;45.328;5.558;2023-04-24T00:21:24;2.33;;;2.13;;
7737;SDS011;29398;45.328;5.558;2023-04-24T00:22:27;5.13;;;2.20;;
7737;SDS011;29398;45.328;5.558;2023-04-24T00:23:28;2.50;;;2.30;;
7737;SDS011;29398;45.328;5.558;2023-04-24T00:24:32;4.13;;;2.15;;
7737;SDS011;29398;45.328;5.558;2023-04-24T00:25:33;3.70;;;2.20;;
7737;SDS011;29398;45.328;5.558;2023-04-24T00:26:35;3.67;;;2.35;;
7737;SDS011;29398;45.328;5.558;2023-04-24T00:27:36;4.50;;;2.03;;
7737;SDS011;29398;45.328;5.558;2023-04-24T00:28:39;3.03;;;2.20;;
7737;SDS011;29398;45.328;5.558;2023-04-24T00:29:40;4.25;;;2.08;;
7737;SDS011;29398;45.328;5.558;2023-04-24T00:30:42;3.25;;;1.90;;
7737;SDS011;29398;45.328;5.558;2023-04-24T00:31:43;3.95;;;1.90;;
7737;SDS011;29398;45.328;5.558;2023-04-24T00:32:45;2.47;;;2.00;;
7737;SDS011;29398;45.328;5.558;2023-04-24T00:33:46;6.43;;;2.03;;
7737;SDS011;29398;45.328;5.558;2023-04-24T00:34:48;2.30;;;2.10;;
7737;SDS011;29398;45.328;5.558;2023-04-24T00:35:50;2.10;;;1.90;;
7737;SDS011;29398;45.328;5.558;2023-04-24T00:36:52;2.50;;;2.13;;
7737;SDS011;29398;45.328;5.558;2023-04-24T00:37:53;3.13;;;2.10;;
7737;SDS011;29398;45.328;5.558;2023-04-24T00:38:55;2.20;;;2.00;;
7737;SDS011;29398;45.328;5.558;2023-04-24T00:39:58;3.17;;;1.90;;
7737;SDS011;29398;45.328;5.558;2023-04-24T00:41:00;4.43;;;1.90;;
7737;SDS011;29398;45.328;5.558;2023-04-24T00:42:02;1.85;;;1.60;;
7737;SDS011;29398;45.328;5.558;2023-04-24T00:43:06;2.10;;;1.90;;
7737;SDS011;29398;45.328;5.558;2023-04-24T00:44:08;3.40;;;2.10;;
7737;SDS011;29398;45.328;5.558;2023-04-24T00:45:11;2.42;;;1.90;;
7737;SDS011;29398;45.328;5.558;2023-04-24T00:46:12;3.28;;;1.67;;
7737;SDS011;29398;45.328;5.558;2023-04-24T00:47:15;3.83;;;1.90;;
7737;SDS011;29398;45.328;5.558;2023-04-24T00:48:16;2.10;;;1.75;;
7737;SDS011;29398;45.328;5.558;2023-04-24T00:49:19;2.58;;;1.73;;
7737;SDS011;29398;45.328;5.558;2023-04-24T00:50:20;2.08;;;1.90;;
7737;SDS011;29398;45.328;5.558;2023-04-24T00:51:22;2.78;;;1.80;;
7737;SDS011;29398;45.328;5.558;2023-04-24T00:52:24;4.28;;;1.77;;
7737;SDS011;29398;45.328;5.558;2023-04-24T00:53:28;2.60;;;1.88;;
7737;SDS011;29398;45.328;5.558;2023-04-24T00:54:29;4.05;;;2.20;;
7737;SDS011;29398;45.328;5.558;2023-04-24T00:55:33;3.38;;;1.90;;
7737;SDS011;29398;45.328;5.558;2023-04-24T00:56:34;7.43;;;2.80;;
7737;SDS011;29398;45.328;5.558;2023-04-24T00:57:38;3.35;;;2.40;;
7737;SDS011;29398;45.328;5.558;2023-04-24T00:58:39;3.65;;;2.53;;
7737;SDS011;29398;45.328;5.558;2023-04-24T00:59:42;2.78;;;1.90;;
7737;SDS011;29398;45.328;5.558;2023-04-24T01:00:43;2.10;;;1.88;;
7737;SDS011;29398;45.328;5.558;2023-04-24T01:01:46;2.00;;;1.63;;
7737;SDS011;29398;45.328;5.558;2023-04-24T01:02:47;3.78;;;2.00;;
7737;SDS011;29398;45.328;5.558;2023-04-24T01:03:52;2.80;;;2.13;;
7737;SDS011;29398;45.328;5.558;2023-04-24T01:04:53;3.28;;;1.98;;
7737;SDS011;29398;45.328;5.558;2023-04-24T01:05:55;4.38;;;1.95;;
7737;SDS011;29398;45.328;5.558;2023-04-24T01:06:57;3.72;;;1.88;;
7737;SDS011;29398;45.328;5.558;2023-04-24T01:07:59;4.30;;;2.00;;
7737;SDS011;29398;45.328;5.558;2023-04-24T01:09:01;3.90;;;1.90;;
7737;SDS011;29398;45.328;5.558;2023-04-24T01:10:04;2.75;;;2.20;;
7737;SDS011;29398;45.328;5.558;2023-04-24T01:11:07;6.28;;;2.53;;
7737;SDS011;29398;45.328;5.558;2023-04-24T01:12:09;2.80;;;2.00;;
7737;SDS011;29398;45.328;5.558;2023-04-24T01:13:11;3.53;;;2.05;;
7737;SDS011;29398;45.328;5.558;2023-04-24T01:14:14;2.80;;;2.10;;
7737;SDS011;29398;45.328;5.558;2023-04-24T01:15:15;3.65;;;2.53;;
7737;SDS011;29398;45.328;5.558;2023-04-24T01:16:17;4.70;;;2.10;;
7737;SDS011;29398;45.328;5.558;2023-04-24T01:17:20;3.08;;;2.30;;
7737;SDS011;29398;45.328;5.558;2023-04-24T01:18:22;4.53;;;2.20;;
7737;SDS011;29398;45.328;5.558;2023-04-24T01:19:24;5.55;;;2.60;;
7737;SDS011;29398;45.328;5.558;2023-04-24T01:20:26;4.82;;;2.38;;
7737;SDS011;29398;45.328;5.558;2023-04-24T01:21:28;4.93;;;2.30;;
7737;SDS011;29398;45.328;5.558;2023-04-24T01:22:34;5.03;;;2.80;;
7737;SDS011;29398;45.328;5.558;2023-04-24T01:23:35;3.28;;;2.70;;
7737;SDS011;29398;45.328;5.558;2023-04-24T01:24:37;4.32;;;3.50;;
7737;SDS011;29398;45.328;5.558;2023-04-24T01:25:38;3.20;;;2.90;;
7737;SDS011;29398;45.328;5.558;2023-04-24T01:26:41;5.10;;;3.92;;
7737;SDS011;29398;45.328;5.558;2023-04-24T01:27:42;4.60;;;4.20;;
7737;SDS011;29398;45.328;5.558;2023-04-24T01:28:45;5.00;;;4.50;;
7737;SDS011;29398;45.328;5.558;2023-04-24T01:29:46;9.20;;;4.13;;
7737;SDS011;29398;45.328;5.558;2023-04-24T01:30:49;5.10;;;4.60;;
7737;SDS011;29398;45.328;5.558;2023-04-24T01:31:51;6.15;;;4.18;;
7737;SDS011;29398;45.328;5.558;2023-04-24T01:32:53;6.15;;;5.55;;
7737;SDS011;29398;45.328;5.558;2023-04-24T01:33:55;7.03;;;4.47;;
7737;SDS011;29398;45.328;5.558;2023-04-24T01:34:58;5.03;;;4.35;;
7737;SDS011;29398;45.328;5.558;2023-04-24T01:35:59;5.20;;;4.68;;
7737;SDS011;29398;45.328;5.558;2023-04-24T01:37:02;5.30;;;4.80;;
7737;SDS011;29398;45.328;5.558;2023-04-24T01:38:05;5.35;;;4.07;;
7737;SDS011;29398;45.328;5.558;2023-04-24T01:39:07;5.85;;;4.35;;
7737;SDS011;29398;45.328;5.558;2023-04-24T01:40:08;4.68;;;4.03;;
7737;SDS011;29398;45.328;5.558;2023-04-24T01:41:11;5.25;;;4.25;;
7737;SDS011;29398;45.328;5.558;2023-04-24T01:42:12;4.57;;;4.13;;
7737;SDS011;29398;45.328;5.558;2023-04-24T01:43:14;8.00;;;4.30;;
7737;SDS011;29398;45.328;5.558;2023-04-24T01:44:16;4.60;;;4.07;;
7737;SDS011;29398;45.328;5.558;2023-04-24T01:45:18;4.25;;;3.45;;
7737;SDS011;29398;45.328;5.558;2023-04-24T01:46:19;4.45;;;3.83;;
7737;SDS011;29398;45.328;5.558;2023-04-24T01:47:22;5.32;;;3.70;;
7737;SDS011;29398;45.328;5.558;2023-04-24T01:48:24;5.75;;;3.92;;
7737;SDS011;29398;45.328;5.558;2023-04-24T01:49:26;4.25;;;3.85;;
7737;SDS011;29398;45.328;5.558;2023-04-24T01:50:28;4.13;;;3.75;;
7737;SDS011;29398;45.328;5.558;2023-04-24T01:51:30;5.35;;;4.60;;
7737;SDS011;29398;45.328;5.558;2023-04-24T01:52:31;4.47;;;3.90;;
7737;SDS011;29398;45.328;5.558;2023-04-24T01:53:36;6.95;;;5.05;;
7737;SDS011;29398;45.328;5.558;2023-04-24T01:54:37;6.50;;;4.18;;
7737;SDS011;29398;45.328;5.558;2023-04-24T01:55:40;5.22;;;4.72;;
7737;SDS011;29398;45.328;5.558;2023-04-24T01:56:41;6.22;;;4.95;;
7737;SDS011;29398;45.328;5.558;2023-04-24T01:57:44;6.88;;;5.07;;
7737;SDS011;29398;45.328;5.558;2023-04-24T01:58:46;5.63;;;5.03;;
7737;SDS011;29398;45.328;5.558;2023-04-24T01:59:48;6.72;;;5.53;;
7737;SDS011;29398;45.328;5.558;2023-04-24T02:00:50;5.30;;;4.80;;
7737;SDS011;29398;45.328;5.558;2023-04-24T02:01:52;6.80;;;5.47;;
7737;SDS011;29398;45.328;5.558;2023-04-24T02:02:53;7.70;;;5.40;;
7737;SDS011;29398;45.328;5.558;2023-04-24T02:03:55;5.43;;;4.93;;
7737;SDS011;29398;45.328;5.558;2023-04-24T02:04:56;5.55;;;5.00;;
7737;SDS011;29398;45.328;5.558;2023-04-24T02:05:58;5.65;;;4.88;;
7737;SDS011;29398;45.328;5.558;2023-04-24T02:07:00;6.35;;;5.38;;
7737;SDS011;29398;45.328;5.558;2023-04-24T02:08:02;6.90;;;5.78;;
7737;SDS011;29398;45.328;5.558;2023-04-24T02:09:04;7.35;;;5.22;;
7737;SDS011;29398;45.328;5.558;2023-04-24T02:10:07;8.00;;;6.07;;
7737;SDS011;29398;45.328;5.558;2023-04-24T02:11:08;7.63;;;5.53;;
7737;SDS011;29398;45.328;5.558;2023-04-24T02:12:11;5.55;;;4.90;;
7737;SDS011;29398;45.328;5.558;2023-04-24T02:13:12;5.85;;;5.22;;
7737;SDS011;29398;45.328;5.558;2023-04-24T02:14:14;6.72;;;5.25;;
7737;SDS011;29398;45.328;5.558;2023-04-24T02:15:15;6.03;;;5.13;;
7737;SDS011;29398;45.328;5.558;2023-04-24T02:16:18;6.13;;;4.93;;
7737;SDS011;29398;45.328;5.558;2023-04-24T02:17:19;6.68;;;5.15;;
7737;SDS011;29398;45.328;5.558;2023-04-24T02:18:21;6.32;;;5.22;;
7737;SDS011;29398;45.328;5.558;2023-04-24T02:19:22;6.00;;;5.28;;
7737;SDS011;29398;45.328;5.558;2023-04-24T02:20:25;6.10;;;5.38;;
7737;SDS011;29398;45.328;5.558;2023-04-24T02:21:27;6.85;;;6.00;;
7737;SDS011;29398;45.328;5.558;2023-04-24T02:22:29;6.35;;;5.75;;
7737;SDS011;29398;45.328;5.558;2023-04-24T02:23:30;6.65;;;5.80;;
7737;SDS011;29398;45.328;5.558;2023-04-24T02:24:34;5.95;;;5.45;;
7737;SDS011;29398;45.328;5.558;2023-04-24T02:25:35;6.65;;;5.05;;
7737;SDS011;29398;45.328;5.558;2023-04-24T02:26:37;5.85;;;5.13;;
7737;SDS011;29398;45.328;5.558;2023-04-24T02:27:38;5.40;;;4.90;;
7737;SDS011;29398;45.328;5.558;2023-04-24T02:28:40;5.75;;;4.90;;
7737;SDS011;29398;45.328;5.558;2023-04-24T02:29:41;7.90;;;4.35;;
7737;SDS011;29398;45.328;5.558;2023-04-24T02:30:43;5.22;;;4.72;;
7737;SDS011;29398;45.328;5.558;2023-04-24T02:31:45;6.72;;;4.60;;
7737;SDS011;29398;45.328;5.558;2023-04-24T02:32:48;7.03;;;4.38;;
7737;SDS011;29398;45.328;5.558;2023-04-24T02:33:50;4.93;;;4.43;;
7737;SDS011;29398;45.328;5.558;2023-04-24T02:34:52;6.82;;;4.43;;
7737;SDS011;29398;45.328;5.558;2023-04-24T02:35:53;5.45;;;4.78;;
7737;SDS011;29398;45.328;5.558;2023-04-24T02:36:55;5.35;;;4.20;;
7737;SDS011;29398;45.328;5.558;2023-04-24T02:37:56;6.10;;;5.47;;
7737;SDS011;29398;45.328;5.558;2023-04-24T02:38:58;5.60;;;5.10;;
7737;SDS011;29398;45.328;5.558;2023-04-24T02:40:01;7.80;;;6.53;;
7737;SDS011;29398;45.328;5.558;2023-04-24T02:41:04;6.78;;;6.07;;
7737;SDS011;29398;45.328;5.558;2023-04-24T02:42:06;8.20;;;7.38;;
7737;SDS011;29398;45.328;5.558;2023-04-24T02:43:09;9.13;;;7.40;;
7737;SDS011;29398;45.328;5.558;2023-04-24T02:44:11;7.95;;;7.22;;
7737;SDS011;29398;45.328;5.558;2023-04-24T02:45:14;8.05;;;7.18;;
7737;SDS011;29398;45.328;5.558;2023-04-24T02:46:15;9.23;;;7.55;;
7737;SDS011;29398;45.328;5.558;2023-04-24T02:47:18;7.65;;;6.95;;
7737;SDS011;29398;45.328;5.558;2023-04-24T02:48:20;7.63;;;6.85;;
7737;SDS011;29398;45.328;5.558;2023-04-24T02:49:22;7.68;;;6.88;;
7737;SDS011;29398;45.328;5.558;2023-04-24T02:50:23;10.82;;;7.55;;
7737;SDS011;29398;45.328;5.558;2023-04-24T02:51:25;7.93;;;7.13;;
7737;SDS011;29398;45.328;5.558;2023-04-24T02:52:27;10.57;;;8.05;;
7737;SDS011;29398;45.328;5.558;2023-04-24T02:53:29;7.22;;;6.63;;
7737;SDS011;29398;45.328;5.558;2023-04-24T02:54:30;9.10;;;7.78;;
7737;SDS011;29398;45.328;5.558;2023-04-24T02:55:34;11.82;;;8.30;;
7737;SDS011;29398;45.328;5.558;2023-04-24T02:56:36;10.75;;;7.80;;
7737;SDS011;29398;45.328;5.558;2023-04-24T02:57:40;9.45;;;7.43;;
7737;SDS011;29398;45.328;5.558;2023-04-24T02:58:41;8.00;;;7.25;;
7737;SDS011;29398;45.328;5.558;2023-04-24T02:59:43;10.98;;;8.10;;
7737;SDS011;29398;45.328;5.558;2023-04-24T03:00:44;8.70;;;7.80;;
7737;SDS011;29398;45.328;5.558;2023-04-24T03:01:46;10.13;;;7.22;;
7737;SDS011;29398;45.328;5.558;2023-04-24T03:02:47;9.13;;;8.13;;
7737;SDS011;29398;45.328;5.558;2023-04-24T03:03:50;10.20;;;7.82;;
7737;SDS011;29398;45.328;5.558;2023-04-24T03:04:51;8.52;;;7.72;;
7737;SDS011;29398;45.328;5.558;2023-04-24T03:05:54;7.65;;;6.95;;
7737;SDS011;29398;45.328;5.558;2023-04-24T03:06:55;8.90;;;7.90;;
7737;SDS011;29398;45.328;5.558;2023-04-24T03:07:58;8.52;;;7.18;;
7737;SDS011;29398;45.328;5.558;2023-04-24T03:08:59;9.85;;;8.93;;
7737;SDS011;29398;45.328;5.558;2023-04-24T03:10:01;9.13;;;8.15;;
7737;SDS011;29398;45.328;5.558;2023-04-24T03:11:03;8.80;;;7.90;;
7737;SDS011;29398;45.328;5.558;2023-04-24T03:12:05;9.20;;;8.30;;
7737;SDS011;29398;45.328;5.558;2023-04-24T03:13:06;10.38;;;8.73;;
7737;SDS011;29398;45.328;5.558;2023-04-24T03:14:08;11.07;;;7.55;;
7737;SDS011;29398;45.328;5.558;2023-04-24T03:15:11;11.43;;;7.10;;
7737;SDS011;29398;45.328;5.558;2023-04-24T03:16:13;8.23;;;7.43;;
7737;SDS011;29398;45.328;5.558;2023-04-24T03:17:15;11.70;;;7.18;;
7737;SDS011;29398;45.328;5.558;2023-04-24T03:18:17;9.50;;;8.23;;
7737;SDS011;29398;45.328;5.558;2023-04-24T03:19:18;9.35;;;7.55;;
7737;SDS011;29398;45.328;5.558;2023-04-24T03:20:36;7.30;;;6.60;;
7737;SDS011;29398;45.328;5.558;2023-04-24T03:21:38;9.45;;;8.55;;
7737;SDS011;29398;45.328;5.558;2023-04-24T03:22:41;11.00;;;8.48;;
7737;SDS011;29398;45.328;5.558;2023-04-24T03:23:42;9.75;;;7.90;;
7737;SDS011;29398;45.328;5.558;2023-04-24T03:24:45;9.00;;;8.23;;
7737;SDS011;29398;45.328;5.558;2023-04-24T03:25:49;11.68;;;9.18;;
7737;SDS011;29398;45.328;5.558;2023-04-24T03:26:54;10.57;;;9.57;;
7737;SDS011;29398;45.328;5.558;2023-04-24T03:28:17;8.75;;;7.60;;
7737;SDS011;29398;45.328;5.558;2023-04-24T03:29:26;11.43;;;7.38;;
7737;SDS011;29398;45.328;5.558;2023-04-24T03:30:27;7.88;;;7.07;;
7737;SDS011;29398;45.328;5.558;2023-04-24T03:31:33;8.82;;;7.47;;
7737;SDS011;29398;45.328;5.558;2023-04-24T03:32:34;7.80;;;7.00;;
7737;SDS011;29398;45.328;5.558;2023-04-24T03:33:37;9.00;;;7.40;;
7737;SDS011;29398;45.328;5.558;2023-04-24T03:34:38;9.52;;;8.60;;
7737;SDS011;29398;45.328;5.558;2023-04-24T03:35:41;11.10;;;8.55;;
7737;SDS011;29398;45.328;5.558;2023-04-24T03:36:45;11.15;;;8.30;;
7737;SDS011;29398;45.328;5.558;2023-04-24T03:37:48;8.57;;;7.68;;
7737;SDS011;29398;45.328;5.558;2023-04-24T03:39:21;8.02;;;6.55;;
7737;SDS011;29398;45.328;5.558;2023-04-24T03:40:28;10.68;;;7.60;;
7737;SDS011;29398;45.328;5.558;2023-04-24T03:41:30;8.32;;;7.40;;
7737;SDS011;29398;45.328;5.558;2023-04-24T03:42:46;10.45;;;7.97;;
7737;SDS011;29398;45.328;5.558;2023-04-24T03:43:47;8.18;;;7.35;;
7737;SDS011;29398;45.328;5.558;2023-04-24T03:44:50;8.65;;;6.95;;
7737;SDS011;29398;45.328;5.558;2023-04-24T03:45:56;8.55;;;6.75;;
7737;SDS011;29398;45.328;5.558;2023-04-24T03:46:59;7.03;;;6.32;;
7737;SDS011;29398;45.328;5.558;2023-04-24T03:48:01;9.52;;;6.80;;
7737;SDS011;29398;45.328;5.558;2023-04-24T03:49:03;7.90;;;7.05;;
7737;SDS011;29398;45.328;5.558;2023-04-24T03:50:09;7.57;;;6.78;;
7737;SDS011;29398;45.328;5.558;2023-04-24T03:51:11;7.15;;;6.45;;
7737;SDS011;29398;45.328;5.558;2023-04-24T03:52:16;7.22;;;6.53;;
7737;SDS011;29398;45.328;5.558;2023-04-24T03:53:19;6.47;;;5.88;;
7737;SDS011;29398;45.328;5.558;2023-04-24T03:54:20;7.18;;;6.53;;
7737;SDS011;29398;45.328;5.558;2023-04-24T03:55:24;8.88;;;6.57;;
7737;SDS011;29398;45.328;5.558;2023-04-24T03:56:27;11.98;;;7.45;;
7737;SDS011;29398;45.328;5.558;2023-04-24T03:57:29;7.38;;;5.75;;
7737;SDS011;29398;45.328;5.558;2023-04-24T03:58:41;6.30;;;5.60;;
7737;SDS011;29398;45.328;5.558;2023-04-24T03:59:44;6.43;;;5.53;;
7737;SDS011;29398;45.328;5.558;2023-04-24T04:00:51;7.55;;;6.00;;
7737;SDS011;29398;45.328;5.558;2023-04-24T04:02:13;6.75;;;5.13;;
7737;SDS011;29398;45.328;5.558;2023-04-24T04:03:15;7.05;;;5.38;;
7737;SDS011;29398;45.328;5.558;2023-04-24T04:04:17;7.75;;;5.85;;
7737;SDS011;29398;45.328;5.558;2023-04-24T04:05:19;6.40;;;5.47;;
7737;SDS011;29398;45.328;5.558;2023-04-24T04:06:20;5.72;;;5.22;;
7737;SDS011;29398;45.328;5.558;2023-04-24T04:07:24;5.70;;;5.10;;
7737;SDS011;29398;45.328;5.558;2023-04-24T04:08:26;5.65;;;5.13;;
7737;SDS011;29398;45.328;5.558;2023-04-24T04:09:28;6.97;;;5.40;;
7737;SDS011;29398;45.328;5.558;2023-04-24T04:10:29;7.10;;;6.38;;
7737;SDS011;29398;45.328;5.558;2023-04-24T04:11:32;8.13;;;6.15;;
7737;SDS011;29398;45.328;5.558;2023-04-24T04:12:33;7.93;;;5.85;;
7737;SDS011;29398;45.328;5.558;2023-04-24T04:13:35;9.57;;;6.03;;
7737;SDS011;29398;45.328;5.558;2023-04-24T04:14:37;9.27;;;6.65;;
7737;SDS011;29398;45.328;5.558;2023-04-24T04:15:40;6.65;;;6.05;;
7737;SDS011;29398;45.328;5.558;2023-04-24T04:16:41;9.18;;;6.00;;
7737;SDS011;29398;45.328;5.558;2023-04-24T04:17:44;7.15;;;6.47;;
7737;SDS011;29398;45.328;5.558;2023-04-24T04:18:46;6.60;;;5.32;;
7737;SDS011;29398;45.328;5.558;2023-04-24T04:19:49;7.03;;;6.20;;
7737;SDS011;29398;45.328;5.558;2023-04-24T04:20:51;8.98;;;6.68;;
7737;SDS011;29398;45.328;5.558;2023-04-24T04:21:53;10.80;;;6.90;;
7737;SDS011;29398;45.328;5.558;2023-04-24T04:23:06;7.35;;;6.65;;
7737;SDS011;29398;45.328;5.558;2023-04-24T04:24:29;8.90;;;6.57;;
7737;SDS011;29398;45.328;5.558;2023-04-24T04:25:32;6.35;;;5.75;;
7737;SDS011;29398;45.328;5.558;2023-04-24T04:26:35;5.47;;;4.88;;
7737;SDS011;29398;45.328;5.558;2023-04-24T04:27:40;6.57;;;5.38;;
7737;SDS011;29398;45.328;5.558;2023-04-24T04:28:44;8.63;;;6.35;;
7737;SDS011;29398;45.328;5.558;2023-04-24T04:29:49;7.40;;;6.53;;
7737;SDS011;29398;45.328;5.558;2023-04-24T04:30:50;10.13;;;7.13;;
7737;SDS011;29398;45.328;5.558;2023-04-24T04:31:54;8.88;;;7.28;;
7737;SDS011;29398;45.328;5.558;2023-04-24T04:32:55;8.75;;;6.28;;
7737;SDS011;29398;45.328;5.558;2023-04-24T04:33:57;8.50;;;7.00;;
7737;SDS011;29398;45.328;5.558;2023-04-24T04:34:59;9.07;;;7.63;;
7737;SDS011;29398;45.328;5.558;2023-04-24T04:36:05;6.85;;;6.15;;
7737;SDS011;29398;45.328;5.558;2023-04-24T04:37:08;7.00;;;6.28;;
7737;SDS011;29398;45.328;5.558;2023-04-24T04:38:21;8.88;;;6.90;;
7737;SDS011;29398;45.328;5.558;2023-04-24T04:39:30;9.18;;;6.78;;
7737;SDS011;29398;45.328;5.558;2023-04-24T04:40:35;7.80;;;6.32;;
7737;SDS011;29398;45.328;5.558;2023-04-24T04:41:39;10.27;;;7.30;;
7737;SDS011;29398;45.328;5.558;2023-04-24T04:42:43;11.15;;;6.82;;
7737;SDS011;29398;45.328;5.558;2023-04-24T04:43:47;9.23;;;7.00;;
7737;SDS011;29398;45.328;5.558;2023-04-24T04:44:51;9.93;;;6.90;;
7737;SDS011;29398;45.328;5.558;2023-04-24T04:45:57;7.57;;;6.78;;
7737;SDS011;29398;45.328;5.558;2023-04-24T04:47:19;7.18;;;6.47;;
7737;SDS011;29398;45.328;5.558;2023-04-24T04:48:22;9.05;;;6.95;;
7737;SDS011;29398;45.328;5.558;2023-04-24T04:49:24;8.63;;;6.05;;
7737;SDS011;29398;45.328;5.558;2023-04-24T04:50:28;9.75;;;6.85;;
7737;SDS011;29398;45.328;5.558;2023-04-24T04:51:36;10.57;;;7.13;;
7737;SDS011;29398;45.328;5.558;2023-04-24T04:52:38;8.05;;;7.28;;
7737;SDS011;29398;45.328;5.558;2023-04-24T04:53:51;10.13;;;7.70;;
7737;SDS011;29398;45.328;5.558;2023-04-24T04:54:53;9.15;;;8.00;;
7737;SDS011;29398;45.328;5.558;2023-04-24T04:55:57;9.40;;;8.30;;
7737;SDS011;29398;45.328;5.558;2023-04-24T04:57:05;10.35;;;8.43;;
7737;SDS011;29398;45.328;5.558;2023-04-24T04:58:09;11.95;;;8.07;;
7737;SDS011;29398;45.328;5.558;2023-04-24T04:59:11;12.25;;;9.15;;
7737;SDS011;29398;45.328;5.558;2023-04-24T05:00:15;10.73;;;7.28;;
7737;SDS011;29398;45.328;5.558;2023-04-24T05:01:22;8.32;;;7.32;;
7737;SDS011;29398;45.328;5.558;2023-04-24T05:02:25;10.13;;;8.38;;
7737;SDS011;29398;45.328;5.558;2023-04-24T05:03:26;10.82;;;9.32;;
7737;SDS011;29398;45.328;5.558;2023-04-24T05:04:39;11.75;;;8.60;;
7737;SDS011;29398;45.328;5.558;2023-04-24T05:05:41;8.38;;;7.55;;
7737;SDS011;29398;45.328;5.558;2023-04-24T05:06:46;7.72;;;6.95;;
7737;SDS011;29398;45.328;5.558;2023-04-24T05:07:48;8.40;;;6.65;;
7737;SDS011;29398;45.328;5.558;2023-04-24T05:08:50;7.00;;;6.35;;
7737;SDS011;29398;45.328;5.558;2023-04-24T05:10:01;8.10;;;6.40;;
7737;SDS011;29398;45.328;5.558;2023-04-24T05:11:04;6.65;;;5.97;;
7737;SDS011;29398;45.328;5.558;2023-04-24T05:12:08;6.60;;;6.00;;
7737;SDS011;29398;45.328;5.558;2023-04-24T05:13:17;7.50;;;6.60;;
7737;SDS011;29398;45.328;5.558;2023-04-24T05:14:19;8.30;;;6.07;;
7737;SDS011;29398;45.328;5.558;2023-04-24T05:15:24;7.40;;;5.68;;
7737;SDS011;29398;45.328;5.558;2023-04-24T05:16:25;6.13;;;4.78;;
7737;SDS011;29398;45.328;5.558;2023-04-24T05:17:28;7.20;;;4.38;;
7737;SDS011;29398;45.328;5.558;2023-04-24T05:18:31;5.43;;;4.90;;
7737;SDS011;29398;45.328;5.558;2023-04-24T05:19:34;8.35;;;5.18;;
7737;SDS011;29398;45.328;5.558;2023-04-24T05:20:40;6.07;;;4.80;;
7737;SDS011;29398;45.328;5.558;2023-04-24T05:21:44;6.97;;;4.68;;
7737;SDS011;29398;45.328;5.558;2023-04-24T05:22:46;5.45;;;4.95;;
7737;SDS011;29398;45.328;5.558;2023-04-24T05:23:49;6.40;;;5.80;;
7737;SDS011;29398;45.328;5.558;2023-04-24T05:24:58;8.88;;;4.93;;
7737;SDS011;29398;45.328;5.558;2023-04-24T05:26:13;5.20;;;4.70;;
7737;SDS011;29398;45.328;5.558;2023-04-24T05:27:16;5.90;;;4.28;;
7737;SDS011;29398;45.328;5.558;2023-04-24T05:28:17;4.05;;;3.60;;
7737;SDS011;29398;45.328;5.558;2023-04-24T05:29:26;6.38;;;4.10;;
7737;SDS011;29398;45.328;5.558;2023-04-24T05:30:29;5.22;;;4.15;;
7737;SDS011;29398;45.328;5.558;2023-04-24T05:31:32;4.05;;;3.58;;
7737;SDS011;29398;45.328;5.558;2023-04-24T05:32:33;5.78;;;4.20;;
7737;SDS011;29398;45.328;5.558;2023-04-24T05:33:36;4.72;;;3.78;;
7737;SDS011;29398;45.328;5.558;2023-04-24T05:34:37;4.80;;;3.50;;
7737;SDS011;29398;45.328;5.558;2023-04-24T05:35:40;3.30;;;2.85;;
7737;SDS011;29398;45.328;5.558;2023-04-24T05:36:46;5.22;;;3.25;;
7737;SDS011;29398;45.328;5.558;2023-04-24T05:37:48;4.47;;;2.97;;
7737;SDS011;29398;45.328;5.558;2023-04-24T05:38:51;3.03;;;2.72;;
7737;SDS011;29398;45.328;5.558;2023-04-24T05:39:54;4.57;;;2.78;;
7737;SDS011;29398;45.328;5.558;2023-04-24T05:40:55;3.75;;;2.55;;
7737;SDS011;29398;45.328;5.558;2023-04-24T05:41:57;2.70;;;2.50;;
7737;SDS011;29398;45.328;5.558;2023-04-24T05:42:59;2.58;;;2.33;;
7737;SDS011;29398;45.328;5.558;2023-04-24T05:44:01;3.47;;;2.30;;
7737;SDS011;29398;45.328;5.558;2023-04-24T05:45:02;5.43;;;2.60;;
7737;SDS011;29398;45.328;5.558;2023-04-24T05:46:06;3.83;;;2.58;;
7737;SDS011;29398;45.328;5.558;2023-04-24T05:47:10;5.35;;;3.08;;
7737;SDS011;29398;45.328;5.558;2023-04-24T05:48:12;4.28;;;2.78;;
7737;SDS011;29398;45.328;5.558;2023-04-24T05:49:13;3.20;;;2.78;;
7737;SDS011;29398;45.328;5.558;2023-04-24T05:50:15;4.50;;;3.40;;
7737;SDS011;29398;45.328;5.558;2023-04-24T05:51:17;7.10;;;3.20;;
7737;SDS011;29398;45.328;5.558;2023-04-24T05:52:19;4.40;;;2.78;;
7737;SDS011;29398;45.328;5.558;2023-04-24T05:53:22;3.00;;;2.80;;
7737;SDS011;29398;45.328;5.558;2023-04-24T05:54:25;3.85;;;2.88;;
7737;SDS011;29398;45.328;5.558;2023-04-24T05:55:26;5.00;;;3.08;;
7737;SDS011;29398;45.328;5.558;2023-04-24T05:56:28;3.08;;;2.78;;
7737;SDS011;29398;45.328;5.558;2023-04-24T05:57:31;4.28;;;2.92;;
7737;SDS011;29398;45.328;5.558;2023-04-24T05:58:36;3.58;;;2.50;;
7737;SDS011;29398;45.328;5.558;2023-04-24T05:59:38;4.30;;;2.90;;
7737;SDS011;29398;45.328;5.558;2023-04-24T06:00:42;5.80;;;2.95;;
7737;SDS011;29398;45.328;5.558;2023-04-24T06:01:46;4.90;;;2.97;;
7737;SDS011;29398;45.328;5.558;2023-04-24T06:02:52;7.03;;;3.22;;
7737;SDS011;29398;45.328;5.558;2023-04-24T06:03:55;3.65;;;2.40;;
7737;SDS011;29398;45.328;5.558;2023-04-24T06:04:56;3.85;;;3.15;;
7737;SDS011;29398;45.328;5.558;2023-04-24T06:05:59;4.15;;;3.15;;
7737;SDS011;29398;45.328;5.558;2023-04-24T06:07:00;4.90;;;3.00;;
7737;SDS011;29398;45.328;5.558;2023-04-24T06:08:03;3.47;;;2.80;;
7737;SDS011;29398;45.328;5.558;2023-04-24T06:09:12;4.90;;;3.08;;
7737;SDS011;29398;45.328;5.558;2023-04-24T06:10:14;3.40;;;3.00;;
7737;SDS011;29398;45.328;5.558;2023-04-24T06:11:18;4.38;;;2.60;;
7737;SDS011;29398;45.328;5.558;2023-04-24T06:12:20;3.58;;;3.00;;
7737;SDS011;29398;45.328;5.558;2023-04-24T06:13:30;3.13;;;2.83;;
7737;SDS011;29398;45.328;5.558;2023-04-24T06:16:00;3.90;;;2.83;;
7737;SDS011;29398;45.328;5.558;2023-04-24T06:17:09;6.43;;;3.20;;
7737;SDS011;29398;45.328;5.558;2023-04-24T06:18:14;4.10;;;3.50;;
7737;SDS011;29398;45.328;5.558;2023-04-24T06:19:16;4.30;;;2.53;;
7737;SDS011;29398;45.328;5.558;2023-04-24T06:20:17;3.85;;;3.45;;
7737;SDS011;29398;45.328;5.558;2023-04-24T06:21:19;3.80;;;3.50;;
7737;SDS011;29398;45.328;5.558;2023-04-24T06:22:21;4.57;;;3.67;;
7737;SDS011;29398;45.328;5.558;2023-04-24T06:23:23;4.45;;;3.47;;
7737;SDS011;29398;45.328;5.558;2023-04-24T06:24:26;8.65;;;3.72;;
7737;SDS011;29398;45.328;5.558;2023-04-24T06:25:29;4.50;;;3.70;;
7737;SDS011;29398;45.328;5.558;2023-04-24T06:26:30;4.15;;;3.75;;
7737;SDS011;29398;45.328;5.558;2023-04-24T06:27:34;6.72;;;4.15;;